createdAt,value
2022-09-05T00:00:26.771Z,77.06
2022-09-05T00:01:53.559Z,79.60
2022-09-05T00:03:21.751Z,80.00
2022-09-05T00:04:51.208Z,72.00
2022-09-05T00:06:13.642Z,82.69
2022-09-05T00:07:58.851Z,76.87
2022-09-05T00:08:57.970Z,83.62
2022-09-05T00:10:46.397Z,70.87
2022-09-05T00:11:50.204Z,65.00
2022-09-05T00:13:07.239Z,80.06
2022-09-05T00:14:56.164Z,85.12
2022-09-05T00:15:36.920Z,92.62
2022-09-05T00:17:01.832Z,88.62
2022-09-05T00:24:17.472Z,83.31
2022-09-05T00:24:22.491Z,91.00
2022-09-05T00:24:26.449Z,86.12
2022-09-05T00:24:27.646Z,83.06
2022-09-05T00:24:27.840Z,88.25
2022-09-05T00:25:14.319Z,89.81
2022-09-05T00:26:16.818Z,87.06
2022-09-05T00:27:55.588Z,92.88
2022-09-05T00:29:47.798Z,84.62
2022-09-05T00:31:08.756Z,83.62
2022-09-05T00:31:55.254Z,80.75
2022-09-05T00:33:16.786Z,84.50
2022-09-05T00:34:47.108Z,83.12
2022-09-05T00:35:53.834Z,83.31
2022-09-05T00:36:58.114Z,78.12
2022-09-05T00:38:14.008Z,84.75
2022-09-05T00:39:21.109Z,85.94
2022-09-05T00:40:31.192Z,83.25
2022-09-05T00:41:35.532Z,85.81
2022-09-05T00:42:40.024Z,85.06
2022-09-05T00:43:52.029Z,84.87
2022-09-05T00:45:01.726Z,86.94
2022-09-05T00:46:20.603Z,84.81
2022-09-05T00:47:48.719Z,84.62
2022-09-05T00:49:20.103Z,85.94
2022-09-05T00:50:30.088Z,85.31
2022-09-05T00:51:51.878Z,83.06
2022-09-05T00:53:06.967Z,82.44
2022-09-05T00:54:41.196Z,82.44
2022-09-05T00:55:54.499Z,81.75
2022-09-05T00:57:25.488Z,89.44
2022-09-05T00:58:41.536Z,86.31
2022-09-05T01:00:16.989Z,92.06
2022-09-05T01:01:52.540Z,75.25
2022-09-05T01:03:17.653Z,88.44
2022-09-05T01:04:30.647Z,82.37
2022-09-05T01:05:57.198Z,78.12
2022-09-05T01:07:20.520Z,88.81
2022-09-05T01:08:33.112Z,90.31
2022-09-05T01:09:48.967Z,85.62
2022-09-05T01:11:04.871Z,88.73
2022-09-05T01:12:31.008Z,78.69
2022-09-05T01:13:37.988Z,83.12
2022-09-05T01:14:50.846Z,80.31
2022-09-05T01:16:03.771Z,78.33
2022-09-05T01:17:21.586Z,77.60
2022-09-05T01:18:52.010Z,80.93
2022-09-05T01:20:19.031Z,76.93
2022-09-05T01:21:34.912Z,76.44
2022-09-05T01:23:00.287Z,71.00
2022-09-05T01:24:14.849Z,74.12
2022-09-05T01:25:47.010Z,74.69
2022-09-05T01:27:25.522Z,76.00
2022-09-05T01:29:16.292Z,59.63
2022-09-05T01:29:53.256Z,66.44
2022-09-05T01:31:27.906Z,54.44
2022-09-05T01:33:06.580Z,59.56
2022-09-05T01:34:32.094Z,59.94
2022-09-05T01:36:01.972Z,69.75
2022-09-05T01:37:34.454Z,70.56
2022-09-05T01:39:13.219Z,63.13
2022-09-05T01:40:14.574Z,65.62
2022-09-05T01:41:18.383Z,55.25
2022-09-05T01:42:45.470Z,68.31
2022-09-05T01:44:12.025Z,57.19
2022-09-05T01:45:29.569Z,59.19
2022-09-05T01:46:54.632Z,66.06
2022-09-05T01:48:08.183Z,66.25
2022-09-05T01:49:19.294Z,64.12
2022-09-05T01:50:38.346Z,61.31
2022-09-05T01:51:57.053Z,59.81
2022-09-05T01:53:21.775Z,63.31
2022-09-05T01:54:45.033Z,68.00
2022-09-05T01:56:11.352Z,68.69
2022-09-05T01:57:19.525Z,63.63
2022-09-05T01:58:44.296Z,69.69
2022-09-05T01:59:54.023Z,65.75
2022-09-05T02:01:25.434Z,72.00
2022-09-05T02:02:36.769Z,74.37
2022-09-05T02:04:07.209Z,73.87
2022-09-05T02:05:14.250Z,67.25
2022-09-05T02:06:29.981Z,78.44
2022-09-05T02:07:36.964Z,66.69
2022-09-05T02:09:11.035Z,64.44
2022-09-05T02:10:39.578Z,66.62
2022-09-05T02:11:49.556Z,66.75
2022-09-05T02:13:02.272Z,65.69
2022-09-05T02:14:11.018Z,63.00
2022-09-05T02:15:25.681Z,59.94
2022-09-05T02:16:38.873Z,69.06
2022-09-05T02:17:50.653Z,72.94
2022-09-05T02:19:03.458Z,62.50
2022-09-05T02:20:20.808Z,60.81
2022-09-05T02:21:55.656Z,63.56
2022-09-05T02:22:46.176Z,64.00
2022-09-05T02:24:05.218Z,54.94
2022-09-05T02:25:32.129Z,58.31
2022-09-05T02:26:44.975Z,66.25
2022-09-05T02:28:04.440Z,63.31
2022-09-05T02:29:00.682Z,63.81
2022-09-05T02:30:22.317Z,59.06
2022-09-05T02:31:43.288Z,70.19
2022-09-05T02:33:06.852Z,55.44
2022-09-05T02:34:22.306Z,56.94
2022-09-05T02:35:35.323Z,59.56
2022-09-05T02:36:57.353Z,57.62
2022-09-05T02:39:54.935Z,60.81
2022-09-05T02:44:54.275Z,68.37
2022-09-05T02:45:10.555Z,67.25
2022-09-05T02:45:11.754Z,66.87
2022-09-05T02:45:14.075Z,64.50
2022-09-05T02:45:20.600Z,71.44
2022-09-05T02:45:58.904Z,71.56
2022-09-05T02:47:15.038Z,62.94
2022-09-05T02:48:33.149Z,64.19
2022-09-05T02:56:23.244Z,61.69
2022-09-05T02:57:25.576Z,67.50
2022-09-05T02:57:25.626Z,61.56
2022-09-05T02:57:34.740Z,64.06
2022-09-05T02:57:35.596Z,69.06
2022-09-05T02:57:36.373Z,65.06
2022-09-05T02:59:10.138Z,68.19
2022-09-05T03:00:19.838Z,73.94
2022-09-05T03:02:05.680Z,76.81
2022-09-05T03:03:14.877Z,61.63
2022-09-05T03:04:39.934Z,62.62
2022-09-05T03:05:52.032Z,78.12
2022-09-05T03:07:02.066Z,75.69
2022-09-05T03:08:28.191Z,69.06
2022-09-05T03:09:50.381Z,61.31
2022-09-05T03:11:23.000Z,64.50
2022-09-05T03:12:45.024Z,62.38
2022-09-05T03:14:20.824Z,58.63
2022-09-05T03:16:04.726Z,63.63
2022-09-05T03:17:27.295Z,63.75
2022-09-05T03:18:53.711Z,75.53
2022-09-05T03:20:28.110Z,68.75
2022-09-05T03:22:08.171Z,66.12
2022-09-05T03:23:38.760Z,73.44
2022-09-05T03:25:07.802Z,83.81
2022-09-05T03:26:33.602Z,83.87
2022-09-05T03:28:12.956Z,62.56
2022-09-05T03:29:45.076Z,60.56
2022-09-05T03:30:54.691Z,67.19
2022-09-05T03:32:10.225Z,53.87
2022-09-05T03:33:41.211Z,72.75
2022-09-05T03:35:12.187Z,78.53
2022-09-05T03:36:45.836Z,57.19
2022-09-05T03:38:10.074Z,69.19
2022-09-05T03:39:33.807Z,58.56
2022-09-05T03:41:03.146Z,72.12
2022-09-05T03:42:36.524Z,70.44
2022-09-05T03:43:58.621Z,69.81
2022-09-05T03:45:29.836Z,76.37
2022-09-05T03:46:44.720Z,74.87
2022-09-05T03:48:53.720Z,76.69
2022-09-05T03:56:30.983Z,79.60
2022-09-05T03:57:06.485Z,64.06
2022-09-05T03:57:06.608Z,77.69
2022-09-05T03:57:18.607Z,57.00
2022-09-05T03:57:22.569Z,57.19
2022-09-05T03:57:25.623Z,71.00
2022-09-05T03:58:41.982Z,62.25
2022-09-05T03:59:53.460Z,72.07
2022-09-05T04:01:11.008Z,71.81
2022-09-05T04:06:22.726Z,78.73
2022-09-05T04:08:08.802Z,64.20
2022-09-05T04:08:16.080Z,66.40
2022-09-05T04:08:17.536Z,63.69
2022-09-05T04:08:18.067Z,64.69
2022-09-05T04:08:43.309Z,73.87
2022-09-05T04:09:59.657Z,69.69
2022-09-05T04:11:09.887Z,70.62
2022-09-05T04:12:16.967Z,69.93
2022-09-05T04:13:26.424Z,75.37
2022-09-05T04:14:48.407Z,76.44
2022-09-05T04:16:01.437Z,67.53
2022-09-05T04:17:10.851Z,75.13
2022-09-05T04:18:32.862Z,79.13
2022-09-05T04:19:43.659Z,73.67
2022-09-05T04:21:01.592Z,69.07
2022-09-05T04:22:33.819Z,76.00
2022-09-05T04:24:01.080Z,70.87
2022-09-05T04:25:36.364Z,77.53
2022-09-05T04:27:01.066Z,70.37
2022-09-05T04:28:19.790Z,76.81
2022-09-05T04:29:59.551Z,73.67
2022-09-05T04:31:26.060Z,68.62
2022-09-05T04:33:06.172Z,71.07
2022-09-05T04:34:31.255Z,71.31
2022-09-05T04:35:57.779Z,72.25
2022-09-05T04:37:05.216Z,72.62
2022-09-05T04:38:17.754Z,78.67
2022-09-05T04:39:24.795Z,82.19
2022-09-05T04:40:43.855Z,77.93
2022-09-05T04:41:52.455Z,75.60
2022-09-05T04:42:59.918Z,73.06
2022-09-05T04:44:20.085Z,73.19
2022-09-05T04:45:26.881Z,68.93
2022-09-05T04:46:48.308Z,76.06
2022-09-05T04:47:52.936Z,79.00
2022-09-05T04:49:13.527Z,80.00
2022-09-05T04:50:23.691Z,84.20
2022-09-05T04:52:00.082Z,85.50
2022-09-05T04:53:21.069Z,71.31
2022-09-05T04:54:34.004Z,79.33
2022-09-05T04:55:50.764Z,81.81
2022-09-05T04:56:55.312Z,84.13
2022-09-05T05:00:06.205Z,87.69
2022-09-05T05:05:44.995Z,75.12
2022-09-05T05:06:04.195Z,86.87
2022-09-05T05:06:09.418Z,92.81
2022-09-05T05:06:09.428Z,92.88
2022-09-05T05:06:15.115Z,91.81
2022-09-05T05:06:17.345Z,77.40
2022-09-05T05:07:09.842Z,101.87
2022-09-05T05:08:17.203Z,96.87
2022-09-05T05:09:29.956Z,103.50
2022-09-05T05:14:07.673Z,94.69
2022-09-05T05:17:22.302Z,109.37
2022-09-05T05:17:56.381Z,110.25
2022-09-05T05:18:11.491Z,94.50
2022-09-05T05:18:13.758Z,101.50
2022-09-05T05:18:13.922Z,100.62
2022-09-05T05:18:39.448Z,104.87
2022-09-05T05:19:36.364Z,105.75
2022-09-05T05:20:46.516Z,103.00
2022-09-05T05:21:53.976Z,107.75
2022-09-05T05:23:07.393Z,107.81
2022-09-05T05:24:21.813Z,108.31
2022-09-05T05:25:27.263Z,106.37
2022-09-05T05:26:59.220Z,103.75
2022-09-05T05:28:22.795Z,102.94
2022-09-05T05:29:23.471Z,103.31
2022-09-05T05:30:30.835Z,106.94
2022-09-05T05:31:49.890Z,104.94
2022-09-05T05:32:55.603Z,113.56
2022-09-05T05:34:07.520Z,113.81
2022-09-05T05:35:11.232Z,111.19
2022-09-05T05:36:18.749Z,111.31
2022-09-05T05:37:37.672Z,116.31
2022-09-05T05:38:47.662Z,109.63
2022-09-05T05:40:11.765Z,111.25
2022-09-05T05:41:18.861Z,110.81
2022-09-05T05:42:24.497Z,117.75
2022-09-05T05:43:34.165Z,107.37
2022-09-05T05:44:39.128Z,112.75
2022-09-05T05:45:45.074Z,116.00
2022-09-05T05:47:02.894Z,118.13
2022-09-05T05:48:09.371Z,113.56
2022-09-05T05:49:34.496Z,114.88
2022-09-05T05:50:59.822Z,106.81
2022-09-05T05:52:33.397Z,108.06
2022-09-05T05:53:42.929Z,119.00
2022-09-05T05:55:11.268Z,114.50
2022-09-05T05:56:52.976Z,104.00
2022-09-05T05:58:15.934Z,98.33
2022-09-05T05:59:34.765Z,104.81
2022-09-05T06:00:56.933Z,106.94
2022-09-05T06:02:25.122Z,111.81
2022-09-05T06:03:38.369Z,109.12
2022-09-05T06:04:51.475Z,107.31
2022-09-05T06:06:31.332Z,105.56
2022-09-05T06:10:49.917Z,115.56
2022-09-05T06:14:55.456Z,111.12
2022-09-05T06:14:55.913Z,118.62
2022-09-05T06:15:02.502Z,112.19
2022-09-05T06:15:02.807Z,105.69
2022-09-05T06:15:22.165Z,112.19
2022-09-05T06:16:29.049Z,116.06
2022-09-05T06:17:47.879Z,111.75
2022-09-05T06:19:09.980Z,102.00
2022-09-05T06:22:07.464Z,104.75
2022-09-05T06:22:08.745Z,91.37
2022-09-05T06:23:36.694Z,86.44
2022-09-05T06:24:35.827Z,57.88
2022-09-05T06:26:15.673Z,51.75
2022-09-05T06:27:28.352Z,47.19
2022-09-05T06:28:59.333Z,35.50
2022-09-05T06:30:18.368Z,45.81
2022-09-05T06:31:37.251Z,34.63
2022-09-05T06:33:12.978Z,25.50
2022-09-05T06:34:42.259Z,21.94
2022-09-05T06:36:04.132Z,21.25
2022-09-05T06:37:13.187Z,25.25
2022-09-05T06:38:39.904Z,22.31
2022-09-05T06:40:03.523Z,21.25
2022-09-05T06:41:22.214Z,24.19
2022-09-05T06:42:49.948Z,25.56
2022-09-05T06:44:02.526Z,25.31
2022-09-05T06:45:29.060Z,27.94
2022-09-05T06:46:54.332Z,30.19
2022-09-05T06:47:45.449Z,30.56
2022-09-05T06:49:29.965Z,26.25
2022-09-05T06:50:24.574Z,28.62
2022-09-05T06:51:44.118Z,28.87
2022-09-05T06:53:19.556Z,27.75
2022-09-05T06:54:28.839Z,29.53
2022-09-05T06:55:37.513Z,29.69
2022-09-05T06:56:54.407Z,31.31
2022-09-05T06:58:07.288Z,34.44
2022-09-05T06:59:30.483Z,40.06
2022-09-05T07:00:56.716Z,47.44
2022-09-05T07:02:58.132Z,53.31
2022-09-05T07:03:43.969Z,62.62
2022-09-05T07:05:24.071Z,72.31
2022-09-05T07:06:20.578Z,58.81
2022-09-05T07:07:33.501Z,61.00
2022-09-05T07:08:52.766Z,61.88
2022-09-05T07:10:16.744Z,63.63
2022-09-05T07:11:23.110Z,56.53
2022-09-05T07:12:37.379Z,59.69
2022-09-05T07:13:59.505Z,74.87
2022-09-05T07:15:28.112Z,63.87
2022-09-05T07:16:39.341Z,76.87
2022-09-05T07:18:09.447Z,69.94
2022-09-05T07:19:17.401Z,59.40
2022-09-05T07:20:28.602Z,69.69
2022-09-05T07:21:44.433Z,73.12
2022-09-05T07:22:57.145Z,69.19
2022-09-05T07:24:11.508Z,95.12
2022-09-05T07:25:18.864Z,75.06
2022-09-05T07:26:49.598Z,76.50
2022-09-05T07:28:25.986Z,78.44
2022-09-05T07:28:57.495Z,82.37
2022-09-05T07:30:05.770Z,99.19
2022-09-05T07:31:12.868Z,100.75
2022-09-05T07:32:24.208Z,109.20
2022-09-05T07:33:28.346Z,94.67
2022-09-05T07:34:37.905Z,108.25
2022-09-05T07:35:43.716Z,114.00
2022-09-05T07:36:51.324Z,107.27
2022-09-05T07:38:01.408Z,112.62
2022-09-05T07:39:27.362Z,108.47
2022-09-05T07:40:26.034Z,113.62
2022-09-05T07:41:32.557Z,115.81
2022-09-05T07:42:43.668Z,114.25
2022-09-05T07:43:52.385Z,109.27
2022-09-05T07:45:01.459Z,109.20
2022-09-05T07:46:20.954Z,111.31
2022-09-05T07:47:28.045Z,113.87
2022-09-05T07:48:35.744Z,109.67
2022-09-05T07:50:45.813Z,111.07
2022-09-05T07:55:37.859Z,116.80
2022-09-05T07:56:49.106Z,117.31
2022-09-05T07:56:58.897Z,121.44
2022-09-05T07:56:59.387Z,115.53
2022-09-05T07:57:01.149Z,117.87
2022-09-05T07:58:15.092Z,118.00
2022-09-05T07:59:22.168Z,119.06
2022-09-05T08:00:29.811Z,118.33
2022-09-05T08:01:39.632Z,117.80
2022-09-05T08:02:47.665Z,118.75
2022-09-05T08:04:02.417Z,117.07
2022-09-05T08:05:04.954Z,112.75
2022-09-05T08:06:34.347Z,118.50
2022-09-05T08:07:48.972Z,117.40
2022-09-05T08:09:00.439Z,120.25
2022-09-05T08:10:06.350Z,116.93
2022-09-05T08:11:24.878Z,119.50
2022-09-05T08:12:28.409Z,112.12
2022-09-05T08:13:46.285Z,110.40
2022-09-05T08:15:23.323Z,109.00
2022-09-05T08:16:28.169Z,109.07
2022-09-05T08:17:35.351Z,120.00
2022-09-05T08:19:07.484Z,106.87
2022-09-05T08:20:37.293Z,111.00
2022-09-05T08:21:47.946Z,107.06
2022-09-05T08:23:00.759Z,105.19
2022-09-05T08:24:24.308Z,97.27
2022-09-05T08:25:56.978Z,98.56
2022-09-05T08:26:46.771Z,97.60
2022-09-05T08:28:18.855Z,103.12
2022-09-05T08:29:37.731Z,102.94
2022-09-05T08:30:47.304Z,87.27
2022-09-05T08:32:16.372Z,94.19
2022-09-05T08:33:26.594Z,95.06
2022-09-05T08:34:44.986Z,88.12
2022-09-05T08:35:59.393Z,75.19
2022-09-05T08:37:04.371Z,85.50
2022-09-05T08:38:19.353Z,79.12
2022-09-05T08:39:26.566Z,75.31
2022-09-05T08:40:43.991Z,77.33
2022-09-05T08:42:08.980Z,74.87
2022-09-05T08:46:37.587Z,63.67
2022-09-05T08:46:52.865Z,73.20
2022-09-05T08:48:09.656Z,65.44
2022-09-05T10:12:06.955Z,104.80
2022-09-05T10:13:46.209Z,119.00
2022-09-05T10:15:31.432Z,123.06
2022-09-05T10:16:34.538Z,82.12
2022-09-05T10:17:58.063Z,83.87
2022-09-05T10:21:16.382Z,48.13
2022-09-05T10:22:42.339Z,69.25
2022-09-05T10:23:58.403Z,73.44
2022-09-05T10:25:20.335Z,84.56
2022-09-05T10:26:56.614Z,77.62
2022-09-05T10:28:09.234Z,80.00
2022-09-05T10:29:38.619Z,72.44
2022-09-05T10:32:49.230Z,73.87
2022-09-05T10:34:50.679Z,75.94
2022-09-05T10:35:09.320Z,95.38
2022-09-05T10:35:16.769Z,104.50
2022-09-05T10:35:40.468Z,99.94
2022-09-05T10:36:47.633Z,99.31
2022-09-05T10:38:10.324Z,105.06
2022-09-05T10:39:26.139Z,101.38
2022-09-05T10:40:36.252Z,103.69
2022-09-05T10:41:51.914Z,115.75
2022-09-05T10:43:13.823Z,112.00
2022-09-05T10:44:44.524Z,103.06
2022-09-05T10:45:51.544Z,130.44
2022-09-05T10:47:07.302Z,123.81
2022-09-05T10:48:14.356Z,124.81
2022-09-05T10:49:21.354Z,107.12
2022-09-05T10:50:31.582Z,132.50
2022-09-05T10:51:52.003Z,129.56
2022-09-05T10:53:01.666Z,128.06
2022-09-05T10:54:26.674Z,105.12
2022-09-05T10:55:47.683Z,112.69
2022-09-05T10:57:10.563Z,92.44
2022-09-05T10:58:47.082Z,80.44
2022-09-05T11:02:16.239Z,70.50
2022-09-05T11:02:26.038Z,29.37
2022-09-05T11:02:27.235Z,64.06
2022-09-05T11:03:26.562Z,23.56
2022-09-05T11:04:49.406Z,17.00
2022-09-05T11:05:48.381Z,18.81
2022-09-05T11:07:07.014Z,23.69
2022-09-05T11:08:16.892Z,15.75
2022-09-05T11:09:41.949Z,16.44
2022-09-05T11:11:05.617Z,16.62
2022-09-05T11:12:32.197Z,14.75
2022-09-05T11:13:39.167Z,16.94
2022-09-05T11:14:55.797Z,10.13
2022-09-05T11:16:31.553Z,13.44
2022-09-05T11:17:38.653Z,15.06
2022-09-05T11:19:06.687Z,14.87
2022-09-05T11:20:36.506Z,13.19
2022-09-05T11:22:21.987Z,14.63
2022-09-05T11:23:25.578Z,11.88
2022-09-05T11:24:35.361Z,14.87
2022-09-05T11:25:41.318Z,12.81
2022-09-05T11:27:23.201Z,12.75
2022-09-05T11:27:57.437Z,14.56
2022-09-05T11:29:09.881Z,13.00
2022-09-05T11:30:29.045Z,14.06
2022-09-05T11:31:30.405Z,15.56
2022-09-05T11:38:11.828Z,12.75
2022-09-05T11:39:51.485Z,12.31
2022-09-05T11:39:53.269Z,14.13
2022-09-05T11:39:56.620Z,40.56
2022-09-05T11:40:02.600Z,13.88
2022-09-05T11:40:10.677Z,11.44
2022-09-05T11:41:05.201Z,11.19
2022-09-05T11:42:19.205Z,24.94
2022-09-05T11:44:08.446Z,28.19
2022-09-05T11:45:26.955Z,34.81
2022-09-05T11:46:53.574Z,41.00
2022-09-05T11:48:08.239Z,45.50
2022-09-05T11:49:42.343Z,62.56
2022-09-05T11:51:16.407Z,59.06
2022-09-05T11:52:38.302Z,66.62
2022-09-05T11:53:45.316Z,60.00
2022-09-05T11:55:25.278Z,78.00
2022-09-05T11:56:50.928Z,86.87
2022-09-05T11:58:27.100Z,95.69
2022-09-05T11:59:33.717Z,93.31
2022-09-05T12:01:38.200Z,90.56
2022-09-05T12:02:37.852Z,95.50
2022-09-05T12:03:59.330Z,87.62
2022-09-05T12:05:48.523Z,93.44
2022-09-05T12:06:35.523Z,100.12
2022-09-05T12:07:59.271Z,107.69
2022-09-05T12:09:07.374Z,120.37
2022-09-05T12:11:59.837Z,121.62
2022-09-05T12:13:12.620Z,106.50
2022-09-05T12:14:49.300Z,94.62
2022-09-05T12:16:07.698Z,91.94
2022-09-05T12:16:58.056Z,100.12
2022-09-05T12:18:26.343Z,91.44
2022-09-05T12:19:48.811Z,86.19
2022-09-05T12:20:58.458Z,88.75
2022-09-05T12:22:26.183Z,90.06
2022-09-05T12:24:24.779Z,72.75
2022-09-05T12:25:24.011Z,81.06
2022-09-05T12:27:38.758Z,79.87
2022-09-05T12:27:42.550Z,85.62
2022-09-05T12:29:32.630Z,59.06
2022-09-05T12:30:00.858Z,61.69
2022-09-05T12:33:32.715Z,62.81
2022-09-05T12:35:52.997Z,73.06
2022-09-05T12:36:07.820Z,72.31
2022-09-05T12:36:12.660Z,66.44
2022-09-05T12:39:40.254Z,74.25
2022-09-05T12:40:40.421Z,77.81
2022-09-05T12:40:54.997Z,69.00
2022-09-05T12:41:33.193Z,76.31
2022-09-05T12:41:41.044Z,136.19
2022-09-05T12:41:45.265Z,81.06
2022-09-05T12:43:01.760Z,56.19
2022-09-05T12:44:38.963Z,52.06
2022-09-05T12:45:45.131Z,48.75
2022-09-05T12:46:59.301Z,55.63
2022-09-05T12:48:20.138Z,49.44
2022-09-05T12:49:37.839Z,51.88
2022-09-05T12:50:57.313Z,50.93
2022-09-05T12:52:05.941Z,51.13
2022-09-05T12:53:15.645Z,91.19
2022-09-05T12:54:33.665Z,72.81
2022-09-05T12:56:12.155Z,53.53
2022-09-05T12:59:55.259Z,55.81
2022-09-05T13:02:59.400Z,52.69
2022-09-05T13:03:05.043Z,86.19
2022-09-05T13:03:09.723Z,54.00
2022-09-05T13:03:13.606Z,51.44
2022-09-05T13:03:27.032Z,53.50
2022-09-05T13:04:17.838Z,56.50
2022-09-05T13:05:23.754Z,52.00
2022-09-05T13:06:44.298Z,51.56
2022-09-05T13:07:54.184Z,40.60
2022-09-05T13:09:01.167Z,45.69
2022-09-05T13:12:39.385Z,35.33
2022-09-05T13:14:47.604Z,52.06
2022-09-05T13:14:54.123Z,42.53
2022-09-05T13:14:58.211Z,35.50
2022-09-05T13:15:22.860Z,17.87
2022-09-05T13:16:07.361Z,42.25
2022-09-05T13:17:13.379Z,38.31
2022-09-05T13:18:23.002Z,28.44
2022-09-05T13:19:30.002Z,43.63
2022-09-05T13:20:37.308Z,54.19
2022-09-05T13:21:43.918Z,55.31
2022-09-05T13:22:50.235Z,56.31
2022-09-05T13:24:02.963Z,51.06
2022-09-05T13:25:09.894Z,56.50
2022-09-05T13:26:23.527Z,59.75
2022-09-05T13:27:34.663Z,51.44
2022-09-05T13:28:51.940Z,49.00
2022-09-05T13:34:42.845Z,58.94
2022-09-05T13:37:54.208Z,54.75
2022-09-05T13:37:57.931Z,50.88
2022-09-05T13:37:59.534Z,55.75
2022-09-05T13:38:06.457Z,59.19
2022-09-05T13:38:11.030Z,52.00
2022-09-05T13:38:20.329Z,54.31
2022-09-05T13:38:48.249Z,53.19
2022-09-05T13:39:59.635Z,47.25
2022-09-05T13:41:04.164Z,50.25
2022-09-05T13:42:10.842Z,48.56
2022-09-05T13:43:17.692Z,53.00
2022-09-05T13:44:26.159Z,53.94
2022-09-05T13:45:29.976Z,54.50
2022-09-05T13:46:43.016Z,50.06
2022-09-05T13:48:06.090Z,49.00
2022-09-05T13:49:31.637Z,35.13
2022-09-05T13:50:22.078Z,50.75
2022-09-05T13:51:40.656Z,60.94
2022-09-05T13:52:59.390Z,52.38
2022-09-05T13:57:36.911Z,49.81
2022-09-05T13:58:56.490Z,50.31
2022-09-05T14:00:27.231Z,55.44
2022-09-05T14:01:19.205Z,51.56
2022-09-05T14:03:29.851Z,50.44
2022-09-05T14:03:55.888Z,50.00
2022-09-05T14:05:15.979Z,56.44
2022-09-05T14:06:46.912Z,54.50
2022-09-05T14:07:52.289Z,48.69
2022-09-05T14:10:41.066Z,55.75
2022-09-05T14:12:07.661Z,42.62
2022-09-05T14:13:29.603Z,50.50
2022-09-05T14:15:58.953Z,49.94
2022-09-05T14:18:27.714Z,50.00
2022-09-05T14:19:35.113Z,53.38
2022-09-05T14:20:58.889Z,55.80
2022-09-05T14:22:09.083Z,50.06
2022-09-05T14:23:16.209Z,53.75
2022-09-05T14:24:27.503Z,51.00
2022-09-05T14:25:31.512Z,48.40
2022-09-05T14:26:48.146Z,49.81
2022-09-05T14:27:52.592Z,51.00
2022-09-05T14:29:02.497Z,48.56
2022-09-05T14:31:03.143Z,50.81
2022-09-05T14:37:36.882Z,49.00
2022-09-05T14:37:41.234Z,48.75
2022-09-05T14:37:41.622Z,49.44
2022-09-05T14:37:54.600Z,57.56
2022-09-05T14:38:01.356Z,58.13
2022-09-05T14:38:14.825Z,52.81
2022-09-05T14:39:45.348Z,51.31
2022-09-05T14:41:15.192Z,53.19
2022-09-05T14:42:46.299Z,51.69
2022-09-05T14:43:56.744Z,51.25
2022-09-05T14:45:27.270Z,65.94
2022-09-05T14:46:45.991Z,44.94
2022-09-05T14:48:16.805Z,52.13
2022-09-05T14:49:26.853Z,55.75
2022-09-05T14:50:36.593Z,48.94
2022-09-05T14:51:43.594Z,70.81
2022-09-05T14:55:36.906Z,49.25
2022-09-05T14:58:55.318Z,51.94
2022-09-05T15:02:43.047Z,53.25
2022-09-05T15:02:49.132Z,56.25
2022-09-05T15:02:50.082Z,50.19
2022-09-05T15:02:53.584Z,51.44
2022-09-05T15:03:05.314Z,53.63
2022-09-05T15:05:19.402Z,51.00
2022-09-05T15:06:28.087Z,53.19
2022-09-05T15:07:40.824Z,50.06
2022-09-05T15:11:24.154Z,50.88
2022-09-05T15:12:14.426Z,49.00
2022-09-05T15:12:24.307Z,49.40
2022-09-05T15:12:44.169Z,47.75
2022-09-05T15:13:46.400Z,48.00
2022-09-05T15:14:56.358Z,51.00
2022-09-05T15:16:12.358Z,50.25
2022-09-05T15:17:19.312Z,52.81
2022-09-05T15:18:28.335Z,53.07
2022-09-05T15:20:05.530Z,54.80
2022-09-05T15:21:33.840Z,86.94
2022-09-05T15:22:31.415Z,60.25
2022-09-05T15:23:37.092Z,85.75
2022-09-05T15:24:41.094Z,68.69
2022-09-05T15:25:51.602Z,71.87
2022-09-05T15:26:59.334Z,83.44
2022-09-05T15:28:06.317Z,84.50
2022-09-05T15:29:14.683Z,88.25
2022-09-05T15:30:34.793Z,93.62
2022-09-05T15:31:36.490Z,74.81
2022-09-05T15:32:40.575Z,62.44
2022-09-05T15:33:44.999Z,68.87
2022-09-05T15:34:53.894Z,93.12
2022-09-05T15:36:01.949Z,67.62
2022-09-05T15:37:23.829Z,75.50
2022-09-05T15:38:56.181Z,70.06
2022-09-05T15:39:45.189Z,75.93
2022-09-05T15:41:26.877Z,61.63
2022-09-05T15:42:34.160Z,68.62
2022-09-05T15:43:55.870Z,70.69
2022-09-05T15:45:10.930Z,96.00
2022-09-05T15:46:09.290Z,95.87
2022-09-05T15:47:16.295Z,68.62
2022-09-05T15:48:22.936Z,85.81
2022-09-05T15:49:32.902Z,78.81
2022-09-05T15:50:42.952Z,79.31
2022-09-05T15:51:49.938Z,78.06
2022-09-05T15:52:56.128Z,77.37
2022-09-05T15:54:02.344Z,88.00
2022-09-05T15:56:34.093Z,95.00
2022-09-05T15:57:42.614Z,103.75
2022-09-05T15:58:55.780Z,79.00
2022-09-05T16:00:08.564Z,83.75
2022-09-05T16:01:30.270Z,81.19
2022-09-05T16:02:26.163Z,88.00
2022-09-05T16:05:36.915Z,76.25
2022-09-05T16:08:39.785Z,81.19
2022-09-05T16:10:29.081Z,91.25
2022-09-05T16:10:34.100Z,99.31
2022-09-05T16:10:38.383Z,114.31
2022-09-05T16:10:43.466Z,101.94
2022-09-05T16:11:08.367Z,104.12
2022-09-05T16:12:54.789Z,117.56
2022-09-05T16:14:22.666Z,89.87
2022-09-05T16:19:32.149Z,95.62
2022-09-05T16:23:14.288Z,100.69
2022-09-05T16:23:14.594Z,97.19
2022-09-05T16:23:24.109Z,100.19
2022-09-05T16:23:31.032Z,105.31
2022-09-05T16:23:33.825Z,100.56
2022-09-05T16:23:46.098Z,97.56
2022-09-05T16:24:58.309Z,102.19
2022-09-05T16:25:59.811Z,96.63
2022-09-05T16:27:03.580Z,98.81
2022-09-05T16:28:25.582Z,88.94
2022-09-05T16:29:32.917Z,100.56
2022-09-05T16:30:39.050Z,102.87
2022-09-05T16:32:01.192Z,111.88
2022-09-05T16:33:23.529Z,103.81
2022-09-05T16:34:35.065Z,101.06
2022-09-05T16:35:44.536Z,114.37
2022-09-05T16:37:08.614Z,114.19
2022-09-05T16:38:15.193Z,115.44
2022-09-05T16:39:24.070Z,117.13
2022-09-05T16:40:40.155Z,117.94
2022-09-05T16:41:53.237Z,116.19
2022-09-05T16:43:06.248Z,125.38
2022-09-05T16:44:16.188Z,115.81
2022-09-05T16:45:41.438Z,114.50
2022-09-05T16:46:48.478Z,115.12
2022-09-05T16:47:58.284Z,125.94
2022-09-05T16:49:11.755Z,117.94
2022-09-05T16:50:34.222Z,121.25
2022-09-05T16:51:50.220Z,114.88
2022-09-05T16:53:05.419Z,116.06
2022-09-05T16:54:32.754Z,127.00
2022-09-05T16:55:45.722Z,115.94
2022-09-05T16:57:01.734Z,125.19
2022-09-05T16:58:19.502Z,121.50
2022-09-05T16:59:29.664Z,113.50
2022-09-05T17:00:42.095Z,118.81
2022-09-05T17:02:10.512Z,116.50
2022-09-05T17:03:28.360Z,125.62
2022-09-05T17:04:31.496Z,133.69
2022-09-05T17:05:41.642Z,131.63
2022-09-05T17:07:00.415Z,132.50
2022-09-05T17:08:05.908Z,126.06
2022-09-05T17:09:21.761Z,128.25
2022-09-05T17:10:28.963Z,121.31
2022-09-05T17:11:38.143Z,124.94
2022-09-05T17:12:42.892Z,127.06
2022-09-05T17:13:55.302Z,129.38
2022-09-05T17:15:02.327Z,130.19
2022-09-05T17:16:09.835Z,125.06
2022-09-05T17:17:57.915Z,121.13
2022-09-05T17:18:27.847Z,125.25
2022-09-05T17:19:44.942Z,123.56
2022-09-05T17:20:45.017Z,122.75
2022-09-05T17:23:24.299Z,119.37
2022-09-05T17:26:55.480Z,131.81
2022-09-05T17:29:24.356Z,115.19
2022-09-05T17:29:30.888Z,123.50
2022-09-05T17:29:31.925Z,117.13
2022-09-05T17:29:33.325Z,118.19
2022-09-05T17:31:26.561Z,115.69
2022-09-05T17:32:18.957Z,116.12
2022-09-05T17:33:27.635Z,128.19
2022-09-05T17:34:49.806Z,121.25
2022-09-05T17:36:15.071Z,126.62
2022-09-05T17:37:41.203Z,127.81
2022-09-05T17:39:05.972Z,127.38
2022-09-05T17:40:22.335Z,122.50
2022-09-05T17:41:44.462Z,128.50
2022-09-05T17:43:00.439Z,124.19
2022-09-05T17:44:22.286Z,127.69
2022-09-05T17:45:30.866Z,130.37
2022-09-05T17:46:39.253Z,144.87
2022-09-05T17:47:53.071Z,127.87
2022-09-05T17:49:19.911Z,123.25
2022-09-05T17:50:18.359Z,124.94
2022-09-05T17:51:35.680Z,132.63
2022-09-05T17:53:25.897Z,121.00
2022-09-05T17:54:15.003Z,127.00
2022-09-05T17:55:19.164Z,137.56
2022-09-05T17:56:43.668Z,129.81
2022-09-05T17:57:48.973Z,136.44
2022-09-05T17:59:01.712Z,132.50
2022-09-05T18:00:32.881Z,132.19
2022-09-05T18:01:37.249Z,128.87
2022-09-05T18:03:04.887Z,122.94
2022-09-05T18:04:16.970Z,127.75
2022-09-05T18:05:49.674Z,129.00
2022-09-05T18:07:00.580Z,128.19
2022-09-05T18:07:59.448Z,126.80